sensor_id;sensor_type;location;lat;lon;timestamp;P1;durP1;ratioP1;P2;durP2;ratioP2
14876;SDS011;69691;48.172;17.070;2023-09-19T00:00:45;7.15;;;3.53;;
14876;SDS011;69691;48.172;17.070;2023-09-19T00:03:15;6.57;;;3.08;;
14876;SDS011;69691;48.172;17.070;2023-09-19T00:05:41;9.77;;;3.00;;
14876;SDS011;69691;48.172;17.070;2023-09-19T00:08:09;5.93;;;2.78;;
14876;SDS011;69691;48.172;17.070;2023-09-19T00:10:35;6.32;;;2.83;;
14876;SDS011;69691;48.172;17.070;2023-09-19T00:13:02;7.25;;;3.20;;
14876;SDS011;69691;48.172;17.070;2023-09-19T00:15:36;7.20;;;2.70;;
14876;SDS011;69691;48.172;17.070;2023-09-19T00:18:05;5.75;;;3.22;;
14876;SDS011;69691;48.172;17.070;2023-09-19T00:20:35;6.60;;;3.22;;
14876;SDS011;69691;48.172;17.070;2023-09-19T00:23:02;3.75;;;2.78;;
14876;SDS011;69691;48.172;17.070;2023-09-19T00:25:29;6.07;;;2.65;;
14876;SDS011;69691;48.172;17.070;2023-09-19T00:27:57;5.80;;;3.00;;
14876;SDS011;69691;48.172;17.070;2023-09-19T00:30:23;6.05;;;2.95;;
14876;SDS011;69691;48.172;17.070;2023-09-19T00:32:50;14.18;;;3.05;;
14876;SDS011;69691;48.172;17.070;2023-09-19T00:35:20;4.97;;;3.83;;
14876;SDS011;69691;48.172;17.070;2023-09-19T00:37:49;11.30;;;3.67;;
14876;SDS011;69691;48.172;17.070;2023-09-19T00:40:16;5.50;;;2.88;;
14876;SDS011;69691;48.172;17.070;2023-09-19T00:42:44;3.72;;;2.72;;
14876;SDS011;69691;48.172;17.070;2023-09-19T00:45:12;3.05;;;2.53;;
14876;SDS011;69691;48.172;17.070;2023-09-19T00:47:44;5.78;;;2.60;;
14876;SDS011;69691;48.172;17.070;2023-09-19T00:50:14;3.25;;;2.65;;
14876;SDS011;69691;48.172;17.070;2023-09-19T00:52:42;2.80;;;2.28;;
14876;SDS011;69691;48.172;17.070;2023-09-19T00:55:09;7.20;;;2.40;;
14876;SDS011;69691;48.172;17.070;2023-09-19T00:57:39;2.40;;;2.20;;
14876;SDS011;69691;48.172;17.070;2023-09-19T01:00:06;4.47;;;2.80;;
14876;SDS011;69691;48.172;17.070;2023-09-19T01:02:37;4.60;;;2.58;;
14876;SDS011;69691;48.172;17.070;2023-09-19T01:05:03;4.38;;;2.47;;
14876;SDS011;69691;48.172;17.070;2023-09-19T01:07:31;7.70;;;2.85;;
14876;SDS011;69691;48.172;17.070;2023-09-19T01:10:04;7.85;;;3.45;;
14876;SDS011;69691;48.172;17.070;2023-09-19T01:18:35;3.88;;;3.17;;
14876;SDS011;69691;48.172;17.070;2023-09-19T01:21:29;16.90;;;7.47;;
14876;SDS011;69691;48.172;17.070;2023-09-19T01:24:10;10.73;;;9.63;;
14876;SDS011;69691;48.172;17.070;2023-09-19T01:27:34;10.35;;;9.50;;
14876;SDS011;69691;48.172;17.070;2023-09-19T01:30:17;10.40;;;9.63;;
14876;SDS011;69691;48.172;17.070;2023-09-19T01:32:49;13.82;;;10.35;;
14876;SDS011;69691;48.172;17.070;2023-09-19T01:35:17;9.90;;;8.93;;
14876;SDS011;69691;48.172;17.070;2023-09-19T01:37:44;10.70;;;9.75;;
14876;SDS011;69691;48.172;17.070;2023-09-19T01:40:14;10.57;;;9.50;;
14876;SDS011;69691;48.172;17.070;2023-09-19T01:42:44;11.27;;;10.38;;
14876;SDS011;69691;48.172;17.070;2023-09-19T01:48:40;10.75;;;9.63;;
14876;SDS011;69691;48.172;17.070;2023-09-19T01:51:20;10.93;;;9.75;;
14876;SDS011;69691;48.172;17.070;2023-09-19T01:54:12;9.73;;;8.80;;
14876;SDS011;69691;48.172;17.070;2023-09-19T01:56:44;10.38;;;9.38;;
14876;SDS011;69691;48.172;17.070;2023-09-19T01:59:20;11.38;;;10.30;;
14876;SDS011;69691;48.172;17.070;2023-09-19T02:01:52;9.52;;;8.40;;
14876;SDS011;69691;48.172;17.070;2023-09-19T02:04:19;10.00;;;9.00;;
14876;SDS011;69691;48.172;17.070;2023-09-19T02:06:45;8.63;;;7.93;;
14876;SDS011;69691;48.172;17.070;2023-09-19T02:09:13;8.93;;;8.23;;
14876;SDS011;69691;48.172;17.070;2023-09-19T02:11:40;8.80;;;7.75;;
14876;SDS011;69691;48.172;17.070;2023-09-19T02:14:07;10.15;;;7.72;;
14876;SDS011;69691;48.172;17.070;2023-09-19T02:16:34;8.85;;;8.20;;
14876;SDS011;69691;48.172;17.070;2023-09-19T02:19:00;10.93;;;8.52;;
14876;SDS011;69691;48.172;17.070;2023-09-19T02:21:30;11.45;;;8.57;;
14876;SDS011;69691;48.172;17.070;2023-09-19T02:23:57;8.95;;;8.20;;
14876;SDS011;69691;48.172;17.070;2023-09-19T02:26:24;8.80;;;7.93;;
14876;SDS011;69691;48.172;17.070;2023-09-19T02:28:50;7.35;;;6.65;;
14876;SDS011;69691;48.172;17.070;2023-09-19T02:31:16;6.95;;;6.43;;
14876;SDS011;69691;48.172;17.070;2023-09-19T02:33:42;7.15;;;6.50;;
14876;SDS011;69691;48.172;17.070;2023-09-19T02:36:08;6.60;;;5.97;;
14876;SDS011;69691;48.172;17.070;2023-09-19T02:38:34;6.32;;;5.82;;
14876;SDS011;69691;48.172;17.070;2023-09-19T02:41:02;6.03;;;5.57;;
14876;SDS011;69691;48.172;17.070;2023-09-19T02:43:28;5.50;;;5.13;;
14876;SDS011;69691;48.172;17.070;2023-09-19T02:45:54;5.43;;;4.90;;
14876;SDS011;69691;48.172;17.070;2023-09-19T02:48:21;5.82;;;5.22;;
14876;SDS011;69691;48.172;17.070;2023-09-19T02:50:51;5.55;;;5.03;;
14876;SDS011;69691;48.172;17.070;2023-09-19T02:53:17;5.43;;;4.95;;
14876;SDS011;69691;48.172;17.070;2023-09-19T02:55:44;4.70;;;4.40;;
14876;SDS011;69691;48.172;17.070;2023-09-19T02:58:10;5.18;;;4.68;;
14876;SDS011;69691;48.172;17.070;2023-09-19T03:00:37;4.72;;;4.25;;
14876;SDS011;69691;48.172;17.070;2023-09-19T03:03:03;4.85;;;4.38;;
14876;SDS011;69691;48.172;17.070;2023-09-19T03:05:32;7.72;;;5.05;;
14876;SDS011;69691;48.172;17.070;2023-09-19T03:07:58;5.28;;;4.80;;
14876;SDS011;69691;48.172;17.070;2023-09-19T03:10:27;5.20;;;4.70;;
14876;SDS011;69691;48.172;17.070;2023-09-19T03:12:56;12.48;;;4.50;;
14876;SDS011;69691;48.172;17.070;2023-09-19T03:15:25;6.55;;;5.95;;
14876;SDS011;69691;48.172;17.070;2023-09-19T03:17:52;6.95;;;5.82;;
14876;SDS011;69691;48.172;17.070;2023-09-19T03:20:21;6.60;;;6.10;;
14876;SDS011;69691;48.172;17.070;2023-09-19T03:22:48;7.40;;;6.32;;
14876;SDS011;69691;48.172;17.070;2023-09-19T03:25:15;6.30;;;5.80;;
14876;SDS011;69691;48.172;17.070;2023-09-19T03:27:46;8.55;;;6.25;;
14876;SDS011;69691;48.172;17.070;2023-09-19T03:30:13;8.75;;;7.85;;
14876;SDS011;69691;48.172;17.070;2023-09-19T03:32:44;71.63;;;10.52;;
14876;SDS011;69691;48.172;17.070;2023-09-19T03:35:12;15.13;;;9.93;;
14876;SDS011;69691;48.172;17.070;2023-09-19T03:37:40;11.30;;;8.90;;
14876;SDS011;69691;48.172;17.070;2023-09-19T03:40:08;12.73;;;11.10;;
14876;SDS011;69691;48.172;17.070;2023-09-19T03:42:39;12.00;;;10.30;;
14876;SDS011;69691;48.172;17.070;2023-09-19T03:45:08;15.20;;;10.57;;
14876;SDS011;69691;48.172;17.070;2023-09-19T03:47:40;13.75;;;10.00;;
14876;SDS011;69691;48.172;17.070;2023-09-19T03:50:07;11.38;;;10.27;;
14876;SDS011;69691;48.172;17.070;2023-09-19T03:52:36;14.15;;;10.45;;
14876;SDS011;69691;48.172;17.070;2023-09-19T03:55:02;14.65;;;10.65;;
14876;SDS011;69691;48.172;17.070;2023-09-19T03:57:29;12.65;;;11.02;;
14876;SDS011;69691;48.172;17.070;2023-09-19T03:59:55;12.02;;;10.93;;
14876;SDS011;69691;48.172;17.070;2023-09-19T04:02:21;16.73;;;11.80;;
14876;SDS011;69691;48.172;17.070;2023-09-19T04:04:49;15.23;;;10.80;;
14876;SDS011;69691;48.172;17.070;2023-09-19T04:07:16;12.65;;;11.32;;
14876;SDS011;69691;48.172;17.070;2023-09-19T04:09:45;13.27;;;11.65;;
14876;SDS011;69691;48.172;17.070;2023-09-19T04:12:11;13.20;;;11.90;;
14876;SDS011;69691;48.172;17.070;2023-09-19T04:14:37;12.57;;;11.20;;
14876;SDS011;69691;48.172;17.070;2023-09-19T04:17:04;16.38;;;11.77;;
14876;SDS011;69691;48.172;17.070;2023-09-19T04:19:31;16.40;;;12.02;;
14876;SDS011;69691;48.172;17.070;2023-09-19T04:21:57;15.82;;;10.80;;
14876;SDS011;69691;48.172;17.070;2023-09-19T04:24:23;15.60;;;12.13;;
14876;SDS011;69691;48.172;17.070;2023-09-19T04:26:48;16.85;;;12.23;;
14876;SDS011;69691;48.172;17.070;2023-09-19T04:29:20;13.55;;;11.65;;
14876;SDS011;69691;48.172;17.070;2023-09-19T04:32:04;15.75;;;12.73;;
14876;SDS011;69691;48.172;17.070;2023-09-19T04:34:31;13.98;;;11.98;;
14876;SDS011;69691;48.172;17.070;2023-09-19T04:36:56;14.15;;;12.68;;
14876;SDS011;69691;48.172;17.070;2023-09-19T04:39:23;13.15;;;11.85;;
14876;SDS011;69691;48.172;17.070;2023-09-19T04:41:51;14.35;;;12.73;;
14876;SDS011;69691;48.172;17.070;2023-09-19T04:44:18;14.93;;;11.48;;
14876;SDS011;69691;48.172;17.070;2023-09-19T04:46:44;13.52;;;12.02;;
14876;SDS011;69691;48.172;17.070;2023-09-19T04:49:11;14.30;;;12.35;;
14876;SDS011;69691;48.172;17.070;2023-09-19T04:51:38;14.25;;;12.82;;
14876;SDS011;69691;48.172;17.070;2023-09-19T04:54:04;13.63;;;12.07;;
14876;SDS011;69691;48.172;17.070;2023-09-19T04:56:32;16.20;;;12.75;;
14876;SDS011;69691;48.172;17.070;2023-09-19T04:58:58;14.35;;;12.95;;
14876;SDS011;69691;48.172;17.070;2023-09-19T05:01:25;18.52;;;12.57;;
14876;SDS011;69691;48.172;17.070;2023-09-19T05:03:52;15.02;;;11.93;;
14876;SDS011;69691;48.172;17.070;2023-09-19T05:06:21;16.15;;;12.38;;
14876;SDS011;69691;48.172;17.070;2023-09-19T05:08:47;16.27;;;13.75;;
14876;SDS011;69691;48.172;17.070;2023-09-19T05:11:20;14.43;;;12.93;;
14876;SDS011;69691;48.172;17.070;2023-09-19T05:13:48;19.60;;;13.50;;
14876;SDS011;69691;48.172;17.070;2023-09-19T05:16:21;14.27;;;12.82;;
14876;SDS011;69691;48.172;17.070;2023-09-19T05:18:47;13.40;;;12.30;;
14876;SDS011;69691;48.172;17.070;2023-09-19T05:21:14;17.90;;;11.88;;
14876;SDS011;69691;48.172;17.070;2023-09-19T05:23:40;16.02;;;14.13;;
14876;SDS011;69691;48.172;17.070;2023-09-19T05:26:07;18.23;;;13.07;;
14876;SDS011;69691;48.172;17.070;2023-09-19T05:28:33;14.85;;;13.18;;
14876;SDS011;69691;48.172;17.070;2023-09-19T05:31:00;14.40;;;13.02;;
14876;SDS011;69691;48.172;17.070;2023-09-19T05:33:30;14.60;;;13.05;;
14876;SDS011;69691;48.172;17.070;2023-09-19T05:35:57;16.02;;;13.35;;
14876;SDS011;69691;48.172;17.070;2023-09-19T05:38:22;16.67;;;12.70;;
14876;SDS011;69691;48.172;17.070;2023-09-19T05:40:49;19.60;;;12.65;;
14876;SDS011;69691;48.172;17.070;2023-09-19T05:43:15;14.05;;;12.20;;
14876;SDS011;69691;48.172;17.070;2023-09-19T05:45:41;14.32;;;11.77;;
14876;SDS011;69691;48.172;17.070;2023-09-19T05:48:07;14.57;;;12.30;;
14876;SDS011;69691;48.172;17.070;2023-09-19T05:50:42;14.13;;;12.80;;
14876;SDS011;69691;48.172;17.070;2023-09-19T05:53:08;14.77;;;13.00;;
14876;SDS011;69691;48.172;17.070;2023-09-19T05:55:37;15.43;;;12.43;;
14876;SDS011;69691;48.172;17.070;2023-09-19T05:58:04;13.13;;;11.95;;
14876;SDS011;69691;48.172;17.070;2023-09-19T06:00:30;13.88;;;12.07;;
14876;SDS011;69691;48.172;17.070;2023-09-19T06:02:57;17.73;;;12.45;;
14876;SDS011;69691;48.172;17.070;2023-09-19T06:05:25;19.15;;;12.98;;
14876;SDS011;69691;48.172;17.070;2023-09-19T06:07:52;13.48;;;12.02;;
14876;SDS011;69691;48.172;17.070;2023-09-19T06:10:19;14.35;;;12.88;;
14876;SDS011;69691;48.172;17.070;2023-09-19T06:12:46;13.00;;;11.95;;
14876;SDS011;69691;48.172;17.070;2023-09-19T06:15:13;13.07;;;11.85;;
14876;SDS011;69691;48.172;17.070;2023-09-19T06:17:47;12.90;;;11.63;;
14876;SDS011;69691;48.172;17.070;2023-09-19T06:20:15;12.43;;;11.23;;
14876;SDS011;69691;48.172;17.070;2023-09-19T06:22:42;12.30;;;11.30;;
14876;SDS011;69691;48.172;17.070;2023-09-19T06:25:09;13.85;;;11.13;;
14876;SDS011;69691;48.172;17.070;2023-09-19T06:27:47;12.48;;;10.80;;
14876;SDS011;69691;48.172;17.070;2023-09-19T06:30:17;16.95;;;10.65;;
14876;SDS011;69691;48.172;17.070;2023-09-19T06:32:43;15.02;;;10.35;;
14876;SDS011;69691;48.172;17.070;2023-09-19T06:35:10;14.23;;;11.30;;
14876;SDS011;69691;48.172;17.070;2023-09-19T06:37:40;14.32;;;11.15;;
14876;SDS011;69691;48.172;17.070;2023-09-19T06:40:11;12.75;;;11.45;;
14876;SDS011;69691;48.172;17.070;2023-09-19T06:43:12;11.32;;;10.15;;
14876;SDS011;69691;48.172;17.070;2023-09-19T06:45:31;10.05;;;9.02;;
14876;SDS011;69691;48.172;17.070;2023-09-19T06:47:57;12.57;;;9.20;;
14876;SDS011;69691;48.172;17.070;2023-09-19T06:50:25;10.02;;;9.05;;
14876;SDS011;69691;48.172;17.070;2023-09-19T06:52:53;11.95;;;8.52;;
14876;SDS011;69691;48.172;17.070;2023-09-19T06:55:22;8.85;;;7.63;;
14876;SDS011;69691;48.172;17.070;2023-09-19T06:57:53;12.95;;;8.70;;
14876;SDS011;69691;48.172;17.070;2023-09-19T07:00:19;9.82;;;6.90;;
14876;SDS011;69691;48.172;17.070;2023-09-19T07:03:00;8.82;;;7.85;;
14876;SDS011;69691;48.172;17.070;2023-09-19T07:05:33;16.40;;;14.80;;
14876;SDS011;69691;48.172;17.070;2023-09-19T07:08:02;16.02;;;14.50;;
14876;SDS011;69691;48.172;17.070;2023-09-19T07:10:29;17.15;;;15.95;;
14876;SDS011;69691;48.172;17.070;2023-09-19T07:12:56;17.38;;;15.93;;
14876;SDS011;69691;48.172;17.070;2023-09-19T07:15:30;13.20;;;9.25;;
14876;SDS011;69691;48.172;17.070;2023-09-19T07:18:04;14.15;;;9.10;;
14876;SDS011;69691;48.172;17.070;2023-09-19T07:20:31;10.25;;;9.45;;
14876;SDS011;69691;48.172;17.070;2023-09-19T07:22:59;9.65;;;8.63;;
14876;SDS011;69691;48.172;17.070;2023-09-19T07:25:26;10.45;;;9.43;;
14876;SDS011;69691;48.172;17.070;2023-09-19T07:27:54;9.02;;;7.20;;
14876;SDS011;69691;48.172;17.070;2023-09-19T07:30:21;8.15;;;7.47;;
14876;SDS011;69691;48.172;17.070;2023-09-19T07:32:47;10.48;;;8.07;;
14876;SDS011;69691;48.172;17.070;2023-09-19T07:35:13;9.48;;;8.30;;
14876;SDS011;69691;48.172;17.070;2023-09-19T07:37:40;9.70;;;8.57;;
14876;SDS011;69691;48.172;17.070;2023-09-19T07:40:06;8.65;;;7.40;;
14876;SDS011;69691;48.172;17.070;2023-09-19T07:42:35;6.70;;;5.95;;
14876;SDS011;69691;48.172;17.070;2023-09-19T07:45:04;7.47;;;6.78;;
14876;SDS011;69691;48.172;17.070;2023-09-19T07:47:30;11.68;;;6.00;;
14876;SDS011;69691;48.172;17.070;2023-09-19T07:49:58;7.55;;;5.97;;
14876;SDS011;69691;48.172;17.070;2023-09-19T07:52:27;7.43;;;5.55;;
14876;SDS011;69691;48.172;17.070;2023-09-19T07:54:53;6.60;;;5.03;;
14876;SDS011;69691;48.172;17.070;2023-09-19T07:57:19;10.35;;;5.47;;
14876;SDS011;69691;48.172;17.070;2023-09-19T07:59:45;5.78;;;5.03;;
14876;SDS011;69691;48.172;17.070;2023-09-19T08:02:11;6.60;;;5.05;;
14876;SDS011;69691;48.172;17.070;2023-09-19T08:04:42;9.30;;;5.47;;
14876;SDS011;69691;48.172;17.070;2023-09-19T08:07:10;9.65;;;5.38;;
14876;SDS011;69691;48.172;17.070;2023-09-19T08:09:37;6.55;;;5.53;;
14876;SDS011;69691;48.172;17.070;2023-09-19T08:12:04;8.68;;;5.40;;
14876;SDS011;69691;48.172;17.070;2023-09-19T08:14:33;6.50;;;5.85;;
14876;SDS011;69691;48.172;17.070;2023-09-19T08:16:59;10.98;;;5.68;;
14876;SDS011;69691;48.172;17.070;2023-09-19T08:19:25;8.73;;;5.60;;
14876;SDS011;69691;48.172;17.070;2023-09-19T08:21:57;7.32;;;6.63;;
14876;SDS011;69691;48.172;17.070;2023-09-19T08:24:24;7.15;;;6.45;;
14876;SDS011;69691;48.172;17.070;2023-09-19T08:26:54;7.25;;;6.65;;
14876;SDS011;69691;48.172;17.070;2023-09-19T08:29:22;9.25;;;7.93;;
14876;SDS011;69691;48.172;17.070;2023-09-19T08:31:55;10.00;;;9.02;;
14876;SDS011;69691;48.172;17.070;2023-09-19T08:34:23;8.00;;;7.22;;
14876;SDS011;69691;48.172;17.070;2023-09-19T08:36:50;8.60;;;4.68;;
14876;SDS011;69691;48.172;17.070;2023-09-19T08:39:18;9.35;;;7.18;;
14876;SDS011;69691;48.172;17.070;2023-09-19T08:41:44;6.88;;;4.90;;
14876;SDS011;69691;48.172;17.070;2023-09-19T08:44:10;9.48;;;6.40;;
14876;SDS011;69691;48.172;17.070;2023-09-19T08:46:36;10.63;;;6.82;;
14876;SDS011;69691;48.172;17.070;2023-09-19T08:49:13;8.15;;;6.75;;
14876;SDS011;69691;48.172;17.070;2023-09-19T08:51:54;8.20;;;6.38;;
14876;SDS011;69691;48.172;17.070;2023-09-19T08:54:39;11.48;;;5.22;;
14876;SDS011;69691;48.172;17.070;2023-09-19T08:57:07;9.20;;;5.82;;
14876;SDS011;69691;48.172;17.070;2023-09-19T08:59:37;7.90;;;7.13;;
14876;SDS011;69691;48.172;17.070;2023-09-19T09:02:11;9.88;;;4.90;;
14876;SDS011;69691;48.172;17.070;2023-09-19T09:04:42;11.82;;;4.60;;
14876;SDS011;69691;48.172;17.070;2023-09-19T09:07:13;7.50;;;5.47;;
14876;SDS011;69691;48.172;17.070;2023-09-19T09:09:40;7.35;;;4.88;;
14876;SDS011;69691;48.172;17.070;2023-09-19T09:12:11;7.05;;;4.90;;
14876;SDS011;69691;48.172;17.070;2023-09-19T09:14:39;6.63;;;4.13;;
14876;SDS011;69691;48.172;17.070;2023-09-19T09:17:06;4.85;;;4.13;;
14876;SDS011;69691;48.172;17.070;2023-09-19T09:19:32;7.60;;;5.13;;
14876;SDS011;69691;48.172;17.070;2023-09-19T09:22:11;11.80;;;4.45;;
14876;SDS011;69691;48.172;17.070;2023-09-19T09:24:37;8.10;;;4.78;;
14876;SDS011;69691;48.172;17.070;2023-09-19T09:27:19;7.18;;;4.90;;
14876;SDS011;69691;48.172;17.070;2023-09-19T09:29:46;7.13;;;4.10;;
14876;SDS011;69691;48.172;17.070;2023-09-19T09:32:20;7.47;;;4.45;;
14876;SDS011;69691;48.172;17.070;2023-09-19T09:34:50;6.63;;;4.45;;
14876;SDS011;69691;48.172;17.070;2023-09-19T09:37:19;8.07;;;4.70;;
14876;SDS011;69691;48.172;17.070;2023-09-19T09:39:57;8.35;;;4.20;;
14876;SDS011;69691;48.172;17.070;2023-09-19T09:42:43;8.40;;;4.32;;
14876;SDS011;69691;48.172;17.070;2023-09-19T09:45:12;8.82;;;4.38;;
14876;SDS011;69691;48.172;17.070;2023-09-19T09:47:46;5.45;;;4.88;;
14876;SDS011;69691;48.172;17.070;2023-09-19T09:50:32;7.65;;;4.28;;
14876;SDS011;69691;48.172;17.070;2023-09-19T09:56:00;9.73;;;4.05;;
14876;SDS011;69691;48.172;17.070;2023-09-19T09:58:35;8.45;;;4.50;;
14876;SDS011;69691;48.172;17.070;2023-09-19T10:01:05;5.13;;;4.22;;
14876;SDS011;69691;48.172;17.070;2023-09-19T10:03:35;10.88;;;5.18;;
14876;SDS011;69691;48.172;17.070;2023-09-19T10:06:12;4.28;;;3.80;;
14876;SDS011;69691;48.172;17.070;2023-09-19T10:11:36;5.53;;;4.03;;
14876;SDS011;69691;48.172;17.070;2023-09-19T10:14:13;6.50;;;4.25;;
14876;SDS011;69691;48.172;17.070;2023-09-19T10:16:48;5.90;;;4.13;;
14876;SDS011;69691;48.172;17.070;2023-09-19T10:19:17;7.07;;;4.32;;
14876;SDS011;69691;48.172;17.070;2023-09-19T10:21:50;6.90;;;4.57;;
14876;SDS011;69691;48.172;17.070;2023-09-19T10:24:20;5.05;;;4.35;;
14876;SDS011;69691;48.172;17.070;2023-09-19T10:26:50;10.48;;;4.65;;
14876;SDS011;69691;48.172;17.070;2023-09-19T10:29:16;8.48;;;4.05;;
14876;SDS011;69691;48.172;17.070;2023-09-19T10:31:44;7.68;;;4.90;;
14876;SDS011;69691;48.172;17.070;2023-09-19T10:34:17;12.05;;;4.13;;
14876;SDS011;69691;48.172;17.070;2023-09-19T10:36:46;8.32;;;4.68;;
14876;SDS011;69691;48.172;17.070;2023-09-19T10:39:13;8.77;;;3.95;;
14876;SDS011;69691;48.172;17.070;2023-09-19T10:41:47;10.00;;;4.72;;
14876;SDS011;69691;48.172;17.070;2023-09-19T10:44:21;7.93;;;4.25;;
14876;SDS011;69691;48.172;17.070;2023-09-19T10:46:53;5.90;;;4.25;;
14876;SDS011;69691;48.172;17.070;2023-09-19T10:49:20;10.85;;;4.32;;
14876;SDS011;69691;48.172;17.070;2023-09-19T10:51:47;6.97;;;4.68;;
14876;SDS011;69691;48.172;17.070;2023-09-19T10:54:20;7.40;;;4.45;;
14876;SDS011;69691;48.172;17.070;2023-09-19T10:56:51;7.90;;;4.75;;
14876;SDS011;69691;48.172;17.070;2023-09-19T10:59:19;5.75;;;4.20;;
14876;SDS011;69691;48.172;17.070;2023-09-19T11:01:47;4.68;;;4.00;;
14876;SDS011;69691;48.172;17.070;2023-09-19T11:13:31;6.95;;;4.40;;
14876;SDS011;69691;48.172;17.070;2023-09-19T11:21:49;7.05;;;4.18;;
14876;SDS011;69691;48.172;17.070;2023-09-19T11:26:56;14.57;;;4.38;;
14876;SDS011;69691;48.172;17.070;2023-09-19T11:29:39;3.90;;;3.53;;
14876;SDS011;69691;48.172;17.070;2023-09-19T11:32:06;7.50;;;3.55;;
14876;SDS011;69691;48.172;17.070;2023-09-19T11:34:42;6.63;;;4.00;;
14876;SDS011;69691;48.172;17.070;2023-09-19T11:39:40;5.47;;;4.05;;
14876;SDS011;69691;48.172;17.070;2023-09-19T11:48:23;8.05;;;3.83;;
14876;SDS011;69691;48.172;17.070;2023-09-19T11:50:52;5.95;;;4.18;;
14876;SDS011;69691;48.172;17.070;2023-09-19T11:53:18;5.30;;;3.95;;
14876;SDS011;69691;48.172;17.070;2023-09-19T11:55:46;4.38;;;3.97;;
14876;SDS011;69691;48.172;17.070;2023-09-19T11:58:15;5.43;;;4.07;;
14876;SDS011;69691;48.172;17.070;2023-09-19T12:00:42;4.90;;;3.47;;
14876;SDS011;69691;48.172;17.070;2023-09-19T12:03:10;9.27;;;3.53;;
14876;SDS011;69691;48.172;17.070;2023-09-19T12:05:39;6.63;;;3.65;;
14876;SDS011;69691;48.172;17.070;2023-09-19T12:08:05;7.18;;;3.53;;
14876;SDS011;69691;48.172;17.070;2023-09-19T12:10:54;5.78;;;3.80;;
14876;SDS011;69691;48.172;17.070;2023-09-19T12:13:21;5.78;;;4.00;;
14876;SDS011;69691;48.172;17.070;2023-09-19T12:15:47;5.32;;;4.10;;
14876;SDS011;69691;48.172;17.070;2023-09-19T12:18:28;8.82;;;3.60;;
14876;SDS011;69691;48.172;17.070;2023-09-19T12:20:55;5.38;;;3.92;;
14876;SDS011;69691;48.172;17.070;2023-09-19T12:23:23;4.55;;;3.58;;
14876;SDS011;69691;48.172;17.070;2023-09-19T12:25:51;4.03;;;3.25;;
14876;SDS011;69691;48.172;17.070;2023-09-19T12:28:19;5.40;;;3.88;;
14876;SDS011;69691;48.172;17.070;2023-09-19T12:30:47;7.70;;;4.07;;
14876;SDS011;69691;48.172;17.070;2023-09-19T12:33:17;17.02;;;3.58;;
14876;SDS011;69691;48.172;17.070;2023-09-19T12:35:51;7.88;;;2.97;;
14876;SDS011;69691;48.172;17.070;2023-09-19T12:38:23;6.32;;;3.90;;
14876;SDS011;69691;48.172;17.070;2023-09-19T12:41:01;5.55;;;4.15;;
14876;SDS011;69691;48.172;17.070;2023-09-19T12:43:30;4.32;;;3.92;;
14876;SDS011;69691;48.172;17.070;2023-09-19T12:46:01;3.80;;;3.40;;
14876;SDS011;69691;48.172;17.070;2023-09-19T12:48:27;6.93;;;3.50;;
14876;SDS011;69691;48.172;17.070;2023-09-19T12:51:04;8.00;;;3.80;;
14876;SDS011;69691;48.172;17.070;2023-09-19T12:53:42;7.78;;;3.53;;
14876;SDS011;69691;48.172;17.070;2023-09-19T12:56:10;6.85;;;3.53;;
14876;SDS011;69691;48.172;17.070;2023-09-19T13:01:19;5.90;;;4.30;;
14876;SDS011;69691;48.172;17.070;2023-09-19T13:04:10;5.53;;;3.97;;
14876;SDS011;69691;48.172;17.070;2023-09-19T13:06:43;6.90;;;4.53;;
14876;SDS011;69691;48.172;17.070;2023-09-19T13:09:14;7.60;;;3.90;;
14876;SDS011;69691;48.172;17.070;2023-09-19T13:11:41;8.93;;;3.80;;
14876;SDS011;69691;48.172;17.070;2023-09-19T13:14:22;7.82;;;3.88;;
14876;SDS011;69691;48.172;17.070;2023-09-19T13:19:36;5.90;;;3.55;;
14876;SDS011;69691;48.172;17.070;2023-09-19T13:25:09;6.93;;;4.00;;
14876;SDS011;69691;48.172;17.070;2023-09-19T13:27:43;7.18;;;4.03;;
14876;SDS011;69691;48.172;17.070;2023-09-19T13:32:39;8.40;;;3.88;;
14876;SDS011;69691;48.172;17.070;2023-09-19T13:35:08;4.45;;;3.63;;
14876;SDS011;69691;48.172;17.070;2023-09-19T13:37:34;7.50;;;3.83;;
14876;SDS011;69691;48.172;17.070;2023-09-19T13:40:04;11.63;;;4.05;;
14876;SDS011;69691;48.172;17.070;2023-09-19T13:42:31;5.50;;;4.05;;
14876;SDS011;69691;48.172;17.070;2023-09-19T13:44:57;5.80;;;3.70;;
14876;SDS011;69691;48.172;17.070;2023-09-19T13:47:23;5.95;;;3.90;;
14876;SDS011;69691;48.172;17.070;2023-09-19T13:49:51;6.32;;;4.00;;
14876;SDS011;69691;48.172;17.070;2023-09-19T13:52:18;6.15;;;3.92;;
14876;SDS011;69691;48.172;17.070;2023-09-19T13:54:45;5.68;;;4.05;;
14876;SDS011;69691;48.172;17.070;2023-09-19T13:57:11;6.47;;;4.05;;
14876;SDS011;69691;48.172;17.070;2023-09-19T13:59:37;4.38;;;3.80;;
14876;SDS011;69691;48.172;17.070;2023-09-19T14:02:03;8.88;;;4.78;;
14876;SDS011;69691;48.172;17.070;2023-09-19T14:04:28;9.25;;;4.00;;
14876;SDS011;69691;48.172;17.070;2023-09-19T14:06:56;8.45;;;3.92;;
14876;SDS011;69691;48.172;17.070;2023-09-19T14:09:23;4.57;;;4.00;;
14876;SDS011;69691;48.172;17.070;2023-09-19T14:11:50;4.30;;;3.90;;
14876;SDS011;69691;48.172;17.070;2023-09-19T14:14:18;4.57;;;4.07;;
14876;SDS011;69691;48.172;17.070;2023-09-19T14:16:45;6.43;;;4.50;;
14876;SDS011;69691;48.172;17.070;2023-09-19T14:19:13;6.65;;;4.38;;
14876;SDS011;69691;48.172;17.070;2023-09-19T14:21:41;6.43;;;4.45;;
14876;SDS011;69691;48.172;17.070;2023-09-19T14:24:08;7.85;;;4.80;;
14876;SDS011;69691;48.172;17.070;2023-09-19T14:26:40;7.97;;;4.20;;
14876;SDS011;69691;48.172;17.070;2023-09-19T14:29:06;7.22;;;4.75;;
14876;SDS011;69691;48.172;17.070;2023-09-19T14:31:39;4.47;;;3.88;;
14876;SDS011;69691;48.172;17.070;2023-09-19T14:34:06;5.40;;;3.97;;
14876;SDS011;69691;48.172;17.070;2023-09-19T14:36:35;4.55;;;4.15;;
14876;SDS011;69691;48.172;17.070;2023-09-19T14:39:01;4.50;;;3.88;;
14876;SDS011;69691;48.172;17.070;2023-09-19T14:41:27;3.90;;;3.50;;
14876;SDS011;69691;48.172;17.070;2023-09-19T14:43:54;8.45;;;4.50;;
14876;SDS011;69691;48.172;17.070;2023-09-19T14:46:23;4.25;;;3.70;;
14876;SDS011;69691;48.172;17.070;2023-09-19T14:48:52;3.92;;;3.50;;
14876;SDS011;69691;48.172;17.070;2023-09-19T14:51:17;5.70;;;4.28;;
14876;SDS011;69691;48.172;17.070;2023-09-19T14:53:44;4.55;;;3.50;;
14876;SDS011;69691;48.172;17.070;2023-09-19T14:56:12;7.85;;;3.33;;
14876;SDS011;69691;48.172;17.070;2023-09-19T14:58:41;3.25;;;3.05;;
14876;SDS011;69691;48.172;17.070;2023-09-19T15:01:11;4.90;;;3.08;;
14876;SDS011;69691;48.172;17.070;2023-09-19T15:03:39;7.10;;;4.57;;
14876;SDS011;69691;48.172;17.070;2023-09-19T15:06:08;3.92;;;3.47;;
14876;SDS011;69691;48.172;17.070;2023-09-19T15:08:36;3.80;;;3.47;;
14876;SDS011;69691;48.172;17.070;2023-09-19T15:11:08;8.55;;;5.32;;
14876;SDS011;69691;48.172;17.070;2023-09-19T15:13:35;3.92;;;3.55;;
14876;SDS011;69691;48.172;17.070;2023-09-19T15:16:03;4.45;;;4.05;;
14876;SDS011;69691;48.172;17.070;2023-09-19T15:18:34;8.50;;;3.80;;
14876;SDS011;69691;48.172;17.070;2023-09-19T15:21:04;4.40;;;3.92;;
14876;SDS011;69691;48.172;17.070;2023-09-19T15:23:31;7.32;;;4.10;;
14876;SDS011;69691;48.172;17.070;2023-09-19T15:26:09;5.88;;;3.83;;
14876;SDS011;69691;48.172;17.070;2023-09-19T15:28:38;9.55;;;3.75;;
14876;SDS011;69691;48.172;17.070;2023-09-19T15:31:06;10.68;;;4.10;;